Time;durP1;ratioP1;P1;durP2;ratioP2;P2;SDS_P1;SDS_P2;PMS_P1;PMS_P2;Temp;Humidity;BMP_temperature;BMP_pressure;BME280_temperature;BME280_humidity;BME280_pressure;Samples;Min_cycle;Max_cycle;Signal;HPM_P1;HPM_P2
2022/03/26 00:00:32;;;;;;;89.88;47.40;;;6.60;99.90;;;;;;4885714;29;20390;-78
2022/03/26 00:02:57;;;;;;;89.38;47.15;;;6.60;99.90;;;;;;4884849;29;20067;-79
2022/03/26 00:05:23;;;;;;;88.43;47.92;;;6.50;99.90;;;;;;4908266;29;20044;-79
2022/03/26 00:07:49;;;;;;;92.68;49.45;;;6.50;99.90;;;;;;4902097;29;20578;-79
2022/03/26 00:10:15;;;;;;;88.80;49.03;;;6.50;99.90;;;;;;4901059;29;20052;-78
2022/03/26 00:12:41;;;;;;;88.63;47.47;;;7.30;99.90;;;;;;4884864;29;20104;-79
2022/03/26 00:15:12;;;;;;;89.30;48.05;;;6.40;99.90;;;;;;4900728;29;20116;-78
2022/03/26 00:17:38;;;;;;;92.13;49.22;;;6.30;99.90;;;;;;4902896;29;20048;-78
2022/03/26 00:20:05;;;;;;;89.20;47.60;;;6.30;99.90;;;;;;4869592;29;20399;-78
2022/03/26 00:22:31;;;;;;;90.25;48.42;;;6.30;99.90;;;;;;4891227;29;20084;-79
2022/03/26 00:24:57;;;;;;;93.13;47.67;;;6.20;99.90;;;;;;4893909;29;20514;-79
2022/03/26 00:27:24;;;;;;;88.88;47.83;;;6.20;99.90;;;;;;4889976;29;20048;-78
2022/03/26 00:29:50;;;;;;;90.97;47.67;;;6.20;99.90;;;;;;4878914;29;20052;-78
2022/03/26 00:32:16;;;;;;;93.88;47.28;;;6.80;99.90;;;;;;4888437;29;20063;-78
2022/03/26 00:34:42;;;;;;;88.63;46.03;;;6.10;99.90;;;;;;4905277;29;20055;-78
2022/03/26 00:37:08;;;;;;;92.45;47.90;;;6.10;99.90;;;;;;4904963;29;20052;-78
2022/03/26 00:39:34;;;;;;;93.25;48.63;;;6.10;99.90;;;;;;4904244;29;20036;-78
2022/03/26 00:41:59;;;;;;;95.68;49.10;;;6.10;99.90;;;;;;4904817;29;20051;-78
2022/03/26 00:44:25;;;;;;;90.65;47.97;;;6.10;99.90;;;;;;4889326;29;20052;-78
2022/03/26 00:46:51;;;;;;;87.05;47.58;;;6.10;99.90;;;;;;4894484;29;20059;-79
2022/03/26 00:49:18;;;;;;;92.88;49.42;;;6.10;99.90;;;;;;4889296;29;20143;-78
2022/03/26 00:51:44;;;;;;;91.90;48.00;;;6.10;99.90;;;;;;4919761;29;20055;-78
2022/03/26 00:54:10;;;;;;;87.68;46.63;;;6.00;99.90;;;;;;4888306;29;21676;-78
2022/03/26 00:56:37;;;;;;;87.63;46.63;;;6.00;99.90;;;;;;4888142;29;20388;-78
2022/03/26 00:59:03;;;;;;;89.68;47.38;;;6.00;99.90;;;;;;4892042;29;20052;-79
2022/03/26 01:01:29;;;;;;;91.25;46.85;;;6.00;99.90;;;;;;4879320;29;20075;-79
2022/03/26 01:03:54;;;;;;;87.15;46.60;;;6.00;99.90;;;;;;4903982;29;20044;-79
2022/03/26 01:06:20;;;;;;;86.28;46.92;;;6.00;99.90;;;;;;4889877;29;20138;-79
2022/03/26 01:08:46;;;;;;;91.82;46.08;;;6.00;99.90;;;;;;4892086;29;20080;-79
2022/03/26 01:11:12;;;;;;;92.68;47.67;;;5.90;99.90;;;;;;4890759;29;20044;-79
2022/03/26 01:13:39;;;;;;;88.90;46.50;;;5.90;99.90;;;;;;4906178;29;20055;-78
2022/03/26 01:16:07;;;;;;;89.45;46.28;;;6.20;99.90;;;;;;4903798;29;20078;-78
2022/03/26 01:18:33;;;;;;;94.28;46.00;;;5.90;99.90;;;;;;4925825;29;20494;-79
2022/03/26 01:21:00;;;;;;;93.45;48.80;;;5.90;99.90;;;;;;4903280;29;20044;-79
2022/03/26 01:23:26;;;;;;;89.63;46.60;;;5.90;99.90;;;;;;4888115;29;20044;-80
2022/03/26 01:25:52;;;;;;;92.10;46.38;;;5.90;99.90;;;;;;4903994;29;20052;-79
2022/03/26 01:28:18;;;;;;;91.20;47.55;;;5.20;99.90;;;;;;4909190;29;20095;-79
2022/03/26 01:30:45;;;;;;;92.75;46.67;;;5.90;99.90;;;;;;4905277;29;20519;-79
2022/03/26 01:33:12;;;;;;;91.82;46.67;;;5.90;99.90;;;;;;4888955;29;20056;-79
2022/03/26 01:35:38;;;;;;;95.72;48.63;;;5.90;99.90;;;;;;4903201;29;20055;-79
2022/03/26 01:38:05;;;;;;;92.35;48.65;;;5.90;99.90;;;;;;4888771;29;20048;-79
2022/03/26 01:40:35;;;;;;;95.53;47.63;;;5.90;99.90;;;;;;4890441;29;20052;-79
2022/03/26 01:43:02;;;;;;;90.78;45.83;;;5.90;99.90;;;;;;4909153;29;20080;-79
2022/03/26 01:45:28;;;;;;;89.30;45.97;;;5.90;99.90;;;;;;4903570;29;20060;-79
2022/03/26 01:47:56;;;;;;;85.50;46.33;;;5.80;99.90;;;;;;4887590;29;20082;-79
2022/03/26 01:50:23;;;;;;;85.00;45.33;;;5.80;99.90;;;;;;4889172;29;20115;-80
2022/03/26 01:52:49;;;;;;;83.60;46.35;;;5.80;99.90;;;;;;4907903;29;20048;-79
2022/03/26 01:55:15;;;;;;;84.95;45.70;;;5.70;99.90;;;;;;4887220;29;20193;-79
2022/03/26 01:57:41;;;;;;;91.28;47.28;;;5.70;99.90;;;;;;4903456;29;20876;-79
2022/03/26 02:00:08;;;;;;;85.72;44.72;;;5.80;99.90;;;;;;4886284;29;20052;-79
2022/03/26 02:02:35;;;;;;;82.10;44.35;;;5.60;99.90;;;;;;4887602;29;20052;-79
2022/03/26 02:05:01;;;;;;;86.50;44.97;;;5.70;99.90;;;;;;4888120;29;20473;-79
2022/03/26 02:07:27;;;;;;;87.32;45.13;;;5.60;99.90;;;;;;4887826;29;20070;-79
2022/03/26 02:09:53;;;;;;;87.60;45.97;;;5.90;99.90;;;;;;4866534;29;20056;-79
2022/03/26 02:12:27;;;;;;;85.55;46.85;;;5.50;99.90;;;;;;4870981;29;20091;-79
2022/03/26 02:14:54;;;;;;;90.60;46.08;;;6.30;99.90;;;;;;4902309;29;20410;-79
2022/03/26 02:17:20;;;;;;;85.47;46.83;;;5.50;99.90;;;;;;4902667;29;20138;-79
2022/03/26 02:19:56;;;;;;;84.65;45.88;;;5.40;99.90;;;;;;4903946;29;20070;-79
2022/03/26 02:22:25;;;;;;;88.53;46.90;;;5.40;99.90;;;;;;4878282;29;20058;-79
2022/03/26 02:24:51;;;;;;;88.55;46.33;;;5.30;99.90;;;;;;4908292;29;20162;-79
2022/03/26 02:27:17;;;;;;;84.45;45.47;;;5.30;99.90;;;;;;4887296;29;20059;-79
2022/03/26 02:29:43;;;;;;;87.60;46.47;;;6.20;99.90;;;;;;4886502;29;20040;-79
2022/03/26 02:32:09;;;;;;;91.90;47.35;;;5.30;99.90;;;;;;4908871;29;20540;-79
2022/03/26 02:34:35;;;;;;;93.05;48.15;;;5.30;99.90;;;;;;4887019;29;20056;-79
2022/03/26 02:37:01;;;;;;;89.28;46.50;;;5.30;99.90;;;;;;4888885;29;20115;-80
2022/03/26 02:39:28;;;;;;;92.45;45.63;;;5.30;99.90;;;;;;4902845;29;20052;-79
2022/03/26 02:41:55;;;;;;;87.05;46.97;;;5.30;99.90;;;;;;4902476;29;20048;-79
2022/03/26 02:44:20;;;;;;;82.75;45.35;;;5.30;99.90;;;;;;4908400;29;20419;-79
2022/03/26 02:46:46;;;;;;;95.93;47.75;;;6.10;99.90;;;;;;4907934;29;20597;-79
2022/03/26 02:49:14;;;;;;;90.28;45.75;;;5.20;99.90;;;;;;4885965;29;20064;-79
2022/03/26 02:51:40;;;;;;;88.55;46.58;;;5.20;99.90;;;;;;4885453;29;20147;-79
2022/03/26 02:54:18;;;;;;;89.13;45.70;;;5.20;99.90;;;;;;4892895;29;20490;-77
2022/03/26 02:56:45;;;;;;;88.03;44.90;;;5.10;99.90;;;;;;4905767;29;20058;-78
2022/03/26 02:59:11;;;;;;;89.45;44.35;;;5.10;99.90;;;;;;4901447;29;20048;-77
2022/03/26 03:01:38;;;;;;;92.47;46.67;;;6.10;99.90;;;;;;4871216;29;20079;-77
2022/03/26 03:04:04;;;;;;;88.38;44.00;;;5.10;99.90;;;;;;4871684;29;20048;-77
2022/03/26 03:06:31;;;;;;;88.90;45.10;;;5.00;99.90;;;;;;4902385;29;20103;-77
2022/03/26 03:08:56;;;;;;;92.75;46.47;;;5.00;99.90;;;;;;4902213;29;20411;-77
2022/03/26 03:11:23;;;;;;;91.13;45.20;;;5.70;99.90;;;;;;4876662;29;20048;-77
2022/03/26 03:13:49;;;;;;;87.47;44.20;;;6.20;99.90;;;;;;4886858;29;20045;-77
2022/03/26 03:16:14;;;;;;;87.22;44.33;;;4.90;99.90;;;;;;4901806;29;20047;-78
2022/03/26 03:18:40;;;;;;;85.25;43.67;;;4.90;99.90;;;;;;4892271;29;20490;-77
2022/03/26 03:21:06;;;;;;;90.40;45.50;;;4.90;99.90;;;;;;4902240;29;20048;-77
2022/03/26 03:23:32;;;;;;;84.53;44.85;;;4.90;99.90;;;;;;4888212;29;20052;-77
2022/03/26 03:25:58;;;;;;;82.88;44.05;;;4.90;99.90;;;;;;4886554;29;20088;-77
2022/03/26 03:28:23;;;;;;;91.18;45.40;;;4.80;99.90;;;;;;4884702;29;21194;-77
2022/03/26 03:30:49;;;;;;;82.70;43.92;;;4.80;99.90;;;;;;4885986;29;20056;-77
2022/03/26 03:33:15;;;;;;;81.63;42.20;;;4.80;99.90;;;;;;4900512;29;20053;-77
2022/03/26 03:35:41;;;;;;;83.85;45.05;;;4.80;99.90;;;;;;4902400;29;20513;-77
2022/03/26 03:38:07;;;;;;;83.82;44.95;;;4.70;99.90;;;;;;4884794;29;20171;-77
2022/03/26 03:40:33;;;;;;;86.15;43.17;;;4.70;99.90;;;;;;4901585;29;20055;-77
2022/03/26 03:42:59;;;;;;;85.20;45.65;;;4.70;99.90;;;;;;4902631;29;20041;-77
2022/03/26 03:45:25;;;;;;;87.13;43.55;;;4.70;99.90;;;;;;4901512;29;20104;-77
2022/03/26 03:47:51;;;;;;;85.25;41.47;;;4.70;99.90;;;;;;4870378;29;20084;-77
2022/03/26 03:50:18;;;;;;;83.85;44.03;;;4.70;99.90;;;;;;4901412;29;20197;-77
2022/03/26 03:52:44;;;;;;;83.72;42.60;;;5.90;99.90;;;;;;4901114;29;20402;-77
2022/03/26 03:55:10;;;;;;;80.25;42.22;;;4.90;99.90;;;;;;4901491;29;20041;-77
2022/03/26 03:57:43;;;;;;;83.88;43.22;;;4.60;99.90;;;;;;4900734;29;20044;-77
2022/03/26 04:00:13;;;;;;;82.30;42.60;;;4.60;99.90;;;;;;4895608;29;20402;-77
2022/03/26 04:02:41;;;;;;;86.30;43.30;;;4.60;99.90;;;;;;4906036;29;20638;-77
2022/03/26 04:05:09;;;;;;;81.63;42.97;;;4.50;99.90;;;;;;4889324;29;20052;-77
2022/03/26 04:07:36;;;;;;;82.90;42.10;;;4.50;99.90;;;;;;4889461;29;20071;-77
2022/03/26 04:10:07;;;;;;;82.28;42.78;;;4.70;99.90;;;;;;4906580;29;20458;-77
2022/03/26 04:12:38;;;;;;;83.05;43.35;;;4.50;99.90;;;;;;4906361;29;20056;-77
2022/03/26 04:15:05;;;;;;;81.50;41.38;;;4.50;99.90;;;;;;4905734;29;20388;-78
2022/03/26 04:17:32;;;;;;;85.85;41.80;;;4.50;99.90;;;;;;4905555;29;20051;-78
2022/03/26 04:19:58;;;;;;;80.25;42.78;;;5.40;99.90;;;;;;4881131;29;20120;-77
2022/03/26 04:22:24;;;;;;;85.45;44.20;;;4.60;99.90;;;;;;4889070;29;20052;-77
2022/03/26 04:24:49;;;;;;;85.05;43.05;;;5.40;99.90;;;;;;4889338;29;20056;-77
2022/03/26 04:27:15;;;;;;;85.80;43.63;;;4.50;99.90;;;;;;4888963;29;20048;-77
2022/03/26 04:29:41;;;;;;;85.60;43.88;;;5.20;99.90;;;;;;4889678;29;20084;-77
2022/03/26 04:32:07;;;;;;;86.88;43.25;;;4.40;99.90;;;;;;4888794;29;20060;-77
2022/03/26 04:34:33;;;;;;;81.45;44.25;;;4.40;99.90;;;;;;4903634;29;20059;-77
2022/03/26 04:36:58;;;;;;;86.63;43.40;;;4.40;99.90;;;;;;4885901;29;20052;-78
2022/03/26 04:39:24;;;;;;;82.28;43.55;;;4.40;99.90;;;;;;4888105;29;20056;-78
2022/03/26 04:41:50;;;;;;;82.38;42.35;;;4.40;99.90;;;;;;4892702;29;20115;-78
2022/03/26 04:44:16;;;;;;;84.03;45.67;;;4.40;99.90;;;;;;4905608;29;20487;-78
2022/03/26 04:46:42;;;;;;;82.32;43.05;;;5.20;99.90;;;;;;4905891;29;20048;-77
2022/03/26 04:49:08;;;;;;;81.78;41.42;;;4.40;99.90;;;;;;4919716;29;20135;-78
2022/03/26 04:51:34;;;;;;;86.15;44.92;;;4.60;99.90;;;;;;4894278;29;20052;-78
2022/03/26 04:54:00;;;;;;;85.32;44.92;;;5.20;99.90;;;;;;4894273;29;20048;-77
2022/03/26 04:56:26;;;;;;;86.75;43.60;;;4.30;99.90;;;;;;4886686;29;20047;-79
2022/03/26 04:58:53;;;;;;;83.38;43.70;;;4.40;99.90;;;;;;4888941;29;20052;-78
2022/03/26 05:01:19;;;;;;;80.45;43.63;;;4.60;99.90;;;;;;4903387;29;20491;-77
2022/03/26 05:03:45;;;;;;;84.55;42.45;;;4.30;99.90;;;;;;4887755;29;20051;-78
2022/03/26 05:06:10;;;;;;;79.07;41.78;;;5.10;99.90;;;;;;4888916;29;20508;-78
2022/03/26 05:08:36;;;;;;;82.38;42.50;;;4.30;99.90;;;;;;4889957;29;20059;-77
2022/03/26 05:11:02;;;;;;;89.63;43.58;;;4.30;99.90;;;;;;4873815;29;20107;-77
2022/03/26 05:13:27;;;;;;;84.88;43.38;;;5.30;99.90;;;;;;4888755;29;20520;-77
2022/03/26 05:15:53;;;;;;;85.72;43.00;;;4.40;99.90;;;;;;4888554;29;20204;-78
2022/03/26 05:18:19;;;;;;;86.10;44.58;;;4.30;99.90;;;;;;4902862;29;20056;-78
2022/03/26 05:20:45;;;;;;;86.55;43.00;;;4.20;99.90;;;;;;4905162;29;20470;-78
2022/03/26 05:23:10;;;;;;;82.82;42.40;;;4.90;99.90;;;;;;4903959;29;20058;-78
2022/03/26 05:25:37;;;;;;;80.20;41.92;;;4.20;99.90;;;;;;4888277;29;20103;-78
2022/03/26 05:28:03;;;;;;;86.78;41.85;;;4.20;99.90;;;;;;4893996;29;20089;-78
2022/03/26 05:30:29;;;;;;;84.40;42.67;;;4.20;99.90;;;;;;4873921;29;20052;-78
2022/03/26 05:32:55;;;;;;;80.00;42.75;;;4.40;99.90;;;;;;4904398;29;20055;-79
2022/03/26 05:35:21;;;;;;;79.50;40.97;;;4.10;99.90;;;;;;4904774;29;20040;-78
2022/03/26 05:37:49;;;;;;;84.03;42.40;;;4.10;99.90;;;;;;4904913;29;20056;-77
2022/03/26 05:40:20;;;;;;;80.63;41.67;;;4.10;99.90;;;;;;4924796;29;20095;-78
2022/03/26 05:42:46;;;;;;;82.63;41.17;;;4.10;99.90;;;;;;4910747;29;20617;-78
2022/03/26 05:45:13;;;;;;;82.30;44.00;;;4.90;99.90;;;;;;4889837;29;20120;-79
2022/03/26 05:47:39;;;;;;;86.00;44.13;;;4.10;99.90;;;;;;4905122;29;20143;-78
2022/03/26 05:50:08;;;;;;;80.45;42.00;;;4.10;99.90;;;;;;4873721;29;20099;-78
2022/03/26 05:52:34;;;;;;;81.75;41.78;;;4.20;99.90;;;;;;4885925;29;20052;-78
2022/03/26 05:55:00;;;;;;;86.60;42.22;;;4.50;99.90;;;;;;4903077;29;20100;-78
2022/03/26 05:57:25;;;;;;;85.43;43.67;;;4.20;99.90;;;;;;4887481;29;20063;-78
2022/03/26 05:59:51;;;;;;;91.30;45.33;;;4.20;99.90;;;;;;4918709;29;20439;-79
2022/03/26 06:02:17;;;;;;;84.40;42.10;;;4.20;99.90;;;;;;4886637;29;20120;-79
2022/03/26 06:04:46;;;;;;;80.68;41.42;;;4.20;99.90;;;;;;4902696;29;20131;-78
2022/03/26 06:07:12;;;;;;;84.07;42.88;;;4.30;99.90;;;;;;4888612;29;20048;-78
2022/03/26 06:09:38;;;;;;;82.60;41.78;;;4.30;99.90;;;;;;4886152;29;20067;-77
2022/03/26 06:12:05;;;;;;;88.55;42.53;;;4.30;99.90;;;;;;4888456;29;20052;-77
2022/03/26 06:14:31;;;;;;;80.00;41.85;;;4.30;99.90;;;;;;4902892;29;20398;-77
2022/03/26 06:16:57;;;;;;;79.00;40.13;;;4.40;99.90;;;;;;4902034;29;20048;-77
2022/03/26 06:19:25;;;;;;;78.15;40.42;;;4.40;99.90;;;;;;4886272;29;20055;-77
2022/03/26 06:21:51;;;;;;;79.07;40.90;;;4.90;99.90;;;;;;4918006;29;20040;-77
2022/03/26 06:24:17;;;;;;;78.93;41.90;;;4.80;99.90;;;;;;4917179;29;20393;-77
2022/03/26 06:26:44;;;;;;;75.22;40.80;;;4.50;99.90;;;;;;4886138;29;20219;-77
2022/03/26 06:29:12;;;;;;;76.95;40.78;;;4.50;99.90;;;;;;4901662;29;20809;-77
2022/03/26 06:31:38;;;;;;;80.13;40.60;;;4.60;99.90;;;;;;4886679;29;20619;-77
2022/03/26 06:34:03;;;;;;;78.85;42.10;;;4.60;99.90;;;;;;4887649;29;20055;-77
2022/03/26 06:36:29;;;;;;;80.90;41.78;;;4.70;99.90;;;;;;4917813;29;20047;-76
2022/03/26 06:38:55;;;;;;;84.13;41.17;;;4.80;99.90;;;;;;4886325;29;20048;-77
2022/03/26 06:41:21;;;;;;;97.57;46.35;;;4.80;99.90;;;;;;4885211;29;20435;-77
2022/03/26 06:43:47;;;;;;;104.18;45.22;;;4.90;99.90;;;;;;4886752;29;20136;-78
2022/03/26 06:46:13;;;;;;;102.28;43.00;;;5.10;99.90;;;;;;4887717;29;20040;-77
2022/03/26 06:48:39;;;;;;;104.80;46.55;;;5.20;99.90;;;;;;4885265;29;20564;-76
2022/03/26 06:51:08;;;;;;;94.53;43.92;;;5.40;99.90;;;;;;4908405;29;20557;-78
2022/03/26 06:53:34;;;;;;;112.75;48.05;;;5.50;99.90;;;;;;4917345;29;20056;-76
2022/03/26 06:56:07;;;;;;;111.68;49.42;;;5.80;99.90;;;;;;4900941;29;20076;-77
2022/03/26 06:58:33;;;;;;;126.20;53.63;;;5.90;99.90;;;;;;4900638;29;20494;-77
2022/03/26 07:01:00;;;;;;;119.97;53.42;;;5.30;99.90;;;;;;4892440;29;20124;-76
2022/03/26 07:03:25;;;;;;;115.40;53.88;;;6.30;99.90;;;;;;4886528;29;20095;-76
2022/03/26 07:05:51;;;;;;;121.35;55.00;;;6.50;99.90;;;;;;4886331;29;20075;-76
2022/03/26 07:08:17;;;;;;;112.05;53.83;;;6.70;99.90;;;;;;4871526;29;20098;-76
2022/03/26 07:10:45;;;;;;;112.80;54.15;;;6.90;99.90;;;;;;4903220;29;20534;-76
2022/03/26 07:13:11;;;;;;;112.47;52.25;;;7.10;99.90;;;;;;4869968;29;20086;-76
2022/03/26 07:15:37;;;;;;;101.13;50.88;;;7.20;99.90;;;;;;4900512;29;20048;-77
2022/03/26 07:18:03;;;;;;;105.65;51.33;;;7.40;99.90;;;;;;4902457;29;20051;-76
2022/03/26 07:20:29;;;;;;;106.40;50.67;;;7.40;99.90;;;;;;4886831;29;20048;-76
2022/03/26 07:22:55;;;;;;;103.45;50.20;;;7.50;99.90;;;;;;4902864;29;20052;-76
2022/03/26 07:25:21;;;;;;;101.10;51.15;;;7.80;99.90;;;;;;4886850;29;20081;-77
2022/03/26 07:27:46;;;;;;;95.78;49.10;;;7.80;99.90;;;;;;4915058;29;20108;-77
2022/03/26 07:30:12;;;;;;;99.93;49.35;;;7.90;99.90;;;;;;4886388;29;20052;-76
2022/03/26 07:32:38;;;;;;;93.95;48.85;;;8.10;99.90;;;;;;4900070;29;20051;-76
2022/03/26 07:35:04;;;;;;;94.78;48.70;;;8.20;99.90;;;;;;4900350;29;20464;-77
2022/03/26 07:37:30;;;;;;;90.70;45.65;;;8.40;99.90;;;;;;4904469;29;20050;-76
2022/03/26 07:39:56;;;;;;;91.75;46.38;;;8.50;99.90;;;;;;4901131;29;20047;-76
2022/03/26 07:42:22;;;;;;;85.13;44.25;;;8.70;99.90;;;;;;4900608;29;20056;-77
2022/03/26 07:44:47;;;;;;;81.20;42.55;;;9.00;99.90;;;;;;4900960;29;20048;-77
2022/03/26 07:47:13;;;;;;;87.38;44.53;;;9.00;99.90;;;;;;4870939;29;20052;-77
2022/03/26 07:49:39;;;;;;;85.63;44.28;;;9.20;99.90;;;;;;4884833;29;20574;-78
2022/03/26 07:52:05;;;;;;;79.55;43.42;;;9.30;99.90;;;;;;4902344;29;20060;-77
2022/03/26 07:54:31;;;;;;;78.38;43.47;;;9.60;99.90;;;;;;4870234;29;20053;-78
2022/03/26 07:56:57;;;;;;;76.18;40.78;;;9.80;99.90;;;;;;4900935;29;20052;-77
2022/03/26 07:59:22;;;;;;;73.18;39.78;;;10.00;99.90;;;;;;4885060;29;20048;-77
2022/03/26 08:01:48;;;;;;;68.10;37.78;;;10.20;99.90;;;;;;4885569;29;22154;-77
2022/03/26 08:04:14;;;;;;;67.90;38.95;;;10.40;99.90;;;;;;4871129;29;20056;-77
2022/03/26 08:06:40;;;;;;;63.15;37.15;;;10.60;99.90;;;;;;4885572;29;20063;-77
2022/03/26 08:09:06;;;;;;;66.05;38.95;;;10.80;99.90;;;;;;4901701;29;20053;-77
2022/03/26 08:11:32;;;;;;;71.38;40.55;;;11.00;99.90;;;;;;4884617;29;20051;-78
2022/03/26 08:13:57;;;;;;;69.93;40.22;;;11.30;99.90;;;;;;4905180;29;20067;-77
2022/03/26 08:16:23;;;;;;;70.78;40.95;;;11.50;99.90;;;;;;4900717;29;20048;-77
2022/03/26 08:18:49;;;;;;;63.45;39.63;;;11.80;99.90;;;;;;4887330;29;20052;-77
2022/03/26 08:21:16;;;;;;;64.50;39.17;;;12.00;99.90;;;;;;4885356;29;20051;-77
2022/03/26 08:23:41;;;;;;;67.00;39.70;;;12.10;99.90;;;;;;4901447;29;20640;-77
2022/03/26 08:26:19;;;;;;;61.97;38.80;;;12.40;99.90;;;;;;4889497;29;20131;-77
2022/03/26 08:28:49;;;;;;;60.85;36.90;;;12.60;99.90;;;;;;4890303;29;20051;-77
2022/03/26 08:31:15;;;;;;;62.10;38.55;;;12.80;99.90;;;;;;4903373;29;20525;-77
2022/03/26 08:33:41;;;;;;;59.47;36.92;;;13.00;99.90;;;;;;4903434;29;20044;-77
2022/03/26 08:36:07;;;;;;;58.03;36.58;;;13.30;99.90;;;;;;4886885;29;20537;-77
2022/03/26 08:38:34;;;;;;;58.85;34.10;;;13.50;99.90;;;;;;4900910;29;20050;-77
2022/03/26 08:40:59;;;;;;;55.17;35.47;;;13.70;99.90;;;;;;4886504;29;20052;-77
2022/03/26 08:43:25;;;;;;;54.38;33.70;;;13.90;99.90;;;;;;4871687;29;20244;-78
2022/03/26 08:45:51;;;;;;;57.08;35.00;;;14.00;99.90;;;;;;4889141;29;20064;-78
2022/03/26 08:48:17;;;;;;;50.85;32.50;;;14.50;99.90;;;;;;4905287;29;20056;-77
2022/03/26 08:50:43;;;;;;;53.05;32.65;;;14.30;99.90;;;;;;4889341;29;20070;-78
2022/03/26 08:53:10;;;;;;;47.83;30.60;;;14.30;99.90;;;;;;4906424;29;20048;-76
2022/03/26 08:55:36;;;;;;;46.80;29.83;;;14.50;99.90;;;;;;4904551;29;20048;-77
2022/03/26 08:58:02;;;;;;;47.72;29.60;;;14.70;99.90;;;;;;4904801;29;20062;-77
2022/03/26 09:00:28;;;;;;;47.33;30.33;;;14.90;99.90;;;;;;4859166;29;20059;-77
2022/03/26 09:02:54;;;;;;;47.90;29.45;;;15.20;99.90;;;;;;4905821;29;20056;-77
2022/03/26 09:05:20;;;;;;;46.20;29.17;;;15.40;99.90;;;;;;4859404;29;20052;-78
2022/03/26 09:07:46;;;;;;;48.47;31.83;;;15.60;99.90;;;;;;4904904;29;20241;-77
2022/03/26 09:10:12;;;;;;;44.65;30.35;;;15.90;99.90;;;;;;4905897;29;20048;-77
2022/03/26 09:12:38;;;;;;;50.58;32.95;;;16.20;99.90;;;;;;4904374;29;20569;-77
2022/03/26 09:15:07;;;;;;;45.95;29.95;;;16.30;99.90;;;;;;4889427;29;20089;-77
2022/03/26 09:17:36;;;;;;;42.60;27.52;;;16.50;99.90;;;;;;4887967;29;20581;-77
2022/03/26 09:20:06;;;;;;;40.92;27.15;;;16.70;99.90;;;;;;4897687;29;20059;-77
2022/03/26 09:22:33;;;;;;;37.28;25.30;;;17.00;99.90;;;;;;4904816;29;20048;-78
2022/03/26 09:24:59;;;;;;;36.22;24.33;;;17.20;99.90;;;;;;4896794;29;20131;-77
2022/03/26 09:27:25;;;;;;;34.35;25.42;;;17.50;99.90;;;;;;4904844;29;20447;-77
2022/03/26 09:29:51;;;;;;;41.50;26.95;;;17.60;99.90;;;;;;4903084;29;20067;-77
2022/03/26 09:32:17;;;;;;;38.03;26.83;;;17.70;99.90;;;;;;4912855;29;20056;-77
2022/03/26 09:34:42;;;;;;;36.47;26.42;;;17.90;99.90;;;;;;4904870;29;20215;-77
2022/03/26 09:37:08;;;;;;;36.72;25.58;;;18.20;99.90;;;;;;4905521;29;20135;-77
2022/03/26 09:39:34;;;;;;;35.65;26.27;;;18.40;99.90;;;;;;4903246;29;20048;-77
2022/03/26 09:42:00;;;;;;;39.40;28.27;;;18.50;99.90;;;;;;4904727;29;20494;-76
2022/03/26 09:44:27;;;;;;;30.23;24.48;;;18.50;99.90;;;;;;4888587;29;20060;-76
2022/03/26 09:46:53;;;;;;;32.47;23.40;;;18.80;99.90;;;;;;4904482;29;20196;-76
2022/03/26 09:49:19;;;;;;;29.42;23.05;;;18.90;99.90;;;;;;4904112;29;20202;-76
2022/03/26 09:51:45;;;;;;;32.13;23.00;;;19.00;99.90;;;;;;4911319;29;20383;-76
2022/03/26 09:54:15;;;;;;;31.85;22.02;;;19.10;99.90;;;;;;4906375;29;20048;-76
2022/03/26 09:56:41;;;;;;;31.52;24.38;;;19.30;99.90;;;;;;4903782;29;20067;-77
2022/03/26 09:59:07;;;;;;;30.48;22.83;;;19.40;99.90;;;;;;4888697;29;20149;-76
2022/03/26 10:01:33;;;;;;;29.02;22.70;;;19.50;99.90;;;;;;4888679;29;20146;-77
2022/03/26 10:04:15;;;;;;;27.00;21.90;;;19.70;99.90;;;;;;4905377;29;20397;-77
2022/03/26 10:06:56;;;;;;;25.50;18.25;;;20.00;99.90;;;;;;4896673;29;20052;-79
2022/03/26 10:09:45;;;;;;;21.45;18.17;;;20.00;99.50;;;;;;4904628;29;20517;-76
2022/03/26 10:12:18;;;;;;;22.88;18.38;;;20.10;99.60;;;;;;4903488;29;20052;-77
2022/03/26 10:14:50;;;;;;;18.73;14.38;;;20.20;99.90;;;;;;4903577;29;20052;-76
2022/03/26 10:17:22;;;;;;;17.70;14.82;;;20.30;99.50;;;;;;4905615;29;20108;-76
2022/03/26 10:19:57;;;;;;;16.88;12.90;;;20.50;98.90;;;;;;4888477;29;20150;-77
2022/03/26 10:22:32;;;;;;;15.80;13.98;;;20.60;98.40;;;;;;4904074;29;20087;-76
2022/03/26 10:25:20;;;;;;;18.67;13.63;;;20.90;98.20;;;;;;4902588;29;20517;-77
2022/03/26 10:27:48;;;;;;;15.90;12.55;;;21.10;97.30;;;;;;4887028;29;20060;-76
2022/03/26 10:30:17;;;;;;;17.48;13.10;;;21.40;97.10;;;;;;4903095;29;20092;-77
2022/03/26 10:32:49;;;;;;;13.18;10.60;;;21.70;96.30;;;;;;4910429;29;20376;-76
2022/03/26 10:35:25;;;;;;;12.13;10.30;;;21.70;95.40;;;;;;4895702;29;20095;-77
2022/03/26 10:38:03;;;;;;;14.90;10.90;;;21.70;93.40;;;;;;4919016;29;20048;-77
2022/03/26 10:40:31;;;;;;;14.10;10.95;;;21.90;94.00;;;;;;4903638;29;20499;-77
2022/03/26 10:42:59;;;;;;;15.60;12.02;;;21.90;94.20;;;;;;4918584;29;20079;-77
2022/03/26 10:45:26;;;;;;;16.48;11.98;;;21.90;93.80;;;;;;4919727;29;20059;-77
2022/03/26 10:48:00;;;;;;;14.27;12.13;;;22.00;94.00;;;;;;4886811;29;20503;-77
2022/03/26 10:50:32;;;;;;;16.48;12.70;;;22.10;93.90;;;;;;4903213;29;20075;-76
2022/03/26 10:53:03;;;;;;;17.05;13.40;;;22.30;94.00;;;;;;4887936;29;20071;-76
2022/03/26 10:55:29;;;;;;;17.02;13.68;;;22.40;93.50;;;;;;4904046;29;20041;-77
2022/03/26 10:57:56;;;;;;;16.10;12.52;;;22.30;93.00;;;;;;4872644;29;20202;-76
2022/03/26 11:00:21;;;;;;;17.25;11.90;;;22.40;93.10;;;;;;4888416;29;20060;-77
2022/03/26 11:02:50;;;;;;;16.02;12.38;;;22.60;93.30;;;;;;4887329;29;20193;-77
2022/03/26 11:05:16;;;;;;;17.15;12.98;;;22.70;92.90;;;;;;4911235;29;20075;-77
2022/03/26 11:07:43;;;;;;;15.18;12.38;;;22.80;92.20;;;;;;4871831;29;20142;-77
2022/03/26 11:10:11;;;;;;;16.60;12.38;;;23.10;92.00;;;;;;4902818;29;20048;-77
2022/03/26 11:12:45;;;;;;;15.05;11.07;;;23.10;91.60;;;;;;4902869;29;20061;-78
2022/03/26 11:15:25;;;;;;;14.13;11.43;;;23.40;91.00;;;;;;4886340;29;20451;-77
2022/03/26 11:18:06;;;;;;;13.85;10.65;;;23.50;90.00;;;;;;4903851;29;20502;-77
2022/03/26 11:20:52;;;;;;;10.98;7.65;;;23.60;88.60;;;;;;4903515;29;20043;-76
2022/03/26 11:23:44;;;;;;;7.25;5.60;;;23.70;82.30;;;;;;4887108;29;20147;-77
2022/03/26 11:26:35;;;;;;;8.45;6.75;;;23.80;80.30;;;;;;4887004;29;20044;-77
2022/03/26 11:29:38;;;;;;;9.85;6.93;;;24.00;77.00;;;;;;4901504;29;20128;-76
2022/03/26 11:32:19;;;;;;;7.68;5.10;;;24.20;76.70;;;;;;4886856;29;20056;-77
2022/03/26 11:34:46;;;;;;;8.98;5.15;;;24.40;75.00;;;;;;4885609;29;20410;-77
2022/03/26 11:37:21;;;;;;;8.15;5.47;;;24.40;74.50;;;;;;4887411;29;20520;-77
2022/03/26 11:39:51;;;;;;;7.15;5.45;;;24.60;71.40;;;;;;4893787;29;20107;-77
2022/03/26 11:42:37;;;;;;;7.25;5.28;;;24.70;72.30;;;;;;4894317;29;20067;-77
2022/03/26 11:50:44;;;;;;;6.65;4.80;;;24.80;70.60;;;;;;4889064;29;20083;-78
2022/03/26 11:53:33;;;;;;;6.90;5.30;;;24.70;68.20;;;;;;4873375;29;20478;-77
2022/03/26 11:56:02;;;;;;;6.50;4.65;;;24.70;67.60;;;;;;4902070;29;20091;-76
2022/03/26 11:58:29;;;;;;;7.78;5.55;;;24.90;66.60;;;;;;4926103;29;20063;-76
2022/03/26 12:01:03;;;;;;;5.57;4.45;;;24.90;67.10;;;;;;4886117;29;20053;-76
2022/03/26 12:03:31;;;;;;;6.60;4.68;;;24.90;65.50;;;;;;4904168;29;20055;-76
2022/03/26 12:08:51;;;;;;;5.20;4.00;;;25.20;64.60;;;;;;4902468;29;20132;-77
2022/03/26 12:11:21;;;;;;;5.20;4.10;;;25.40;63.90;;;;;;4887288;29;20051;-77
2022/03/26 12:14:08;;;;;;;6.53;4.43;;;25.50;62.80;;;;;;4901618;29;20056;-77
2022/03/26 12:16:50;;;;;;;6.22;4.05;;;25.50;60.00;;;;;;4901686;29;20176;-77
2022/03/26 12:19:35;;;;;;;5.82;4.15;;;25.30;61.10;;;;;;4903103;29;20522;-77
2022/03/26 12:22:26;;;;;;;5.55;4.07;;;25.20;61.90;;;;;;4906908;29;20281;-77
2022/03/26 12:24:57;;;;;;;4.95;3.95;;;25.00;61.50;;;;;;4890313;29;20060;-77
2022/03/26 12:27:24;;;;;;;6.63;4.70;;;24.90;62.50;;;;;;4897701;29;20059;-77
2022/03/26 12:29:53;;;;;;;5.20;4.13;;;24.90;62.70;;;;;;4897138;29;20066;-76
2022/03/26 12:32:19;;;;;;;6.50;4.50;;;25.10;62.40;;;;;;4905931;29;20058;-76
2022/03/26 12:35:02;;;;;;;6.18;4.55;;;25.20;62.00;;;;;;4873456;29;20056;-77
2022/03/26 12:37:28;;;;;;;4.70;3.88;;;25.30;60.90;;;;;;4913140;29;20048;-76
2022/03/26 12:39:54;;;;;;;5.13;3.65;;;25.30;61.20;;;;;;4889416;29;20492;-76
2022/03/26 12:42:23;;;;;;;4.15;3.50;;;25.30;60.60;;;;;;4906087;29;20355;-76
2022/03/26 12:44:49;;;;;;;5.07;3.45;;;25.30;60.30;;;;;;4920667;29;20108;-77
2022/03/26 12:47:25;;;;;;;4.32;2.97;;;25.30;60.10;;;;;;4905610;29;20056;-77